Terminal Aerodrome Forecast
Issued by NWS Atlanta, GA

Home | Current Version | Previous Version | Text Only | Print | Product List | Glossary On
Versions: 1 2 3 4 5 6 7 8 9 10 11 12 13 14 15 16 17 18 19 20 21 22 23 24 25 26 27 28 29 30 31 32 33 34 35 36 37 38 39
000
FTUS42 KFFC 161735
TAFATL
TAF
KATL 161735Z 1618/1724 32008KT P6SM SCT030 SCT180
     FM162100 28008KT P6SM VCSH SCT040 BKN120
     FM170100 25005KT P6SM FEW050 BKN250
     FM170500 26005KT P6SM SCT120
     FM171400 27005KT P6SM SCT025 SCT200
     FM172000 26007KT P6SM SCT060 BKN120 PROB30 1720/1724 4SM -TSRA
      BKN050CB=

USA.gov is the U.S. government's official web portal to all federal, state and local government web resources and services.